Terminal Aerodrome Forecast
Issued by NWS

Home | Current Version | Previous Version | Text Only | Print | Product List | Glossary On
Versions: 1 2 3 4 5 6 7 8 9 10 11 12 13 14 15 16 17 18 19 20 21 22 23 24
000
FTUS41 KBUF 211100
TAFJHW
TAF
KJHW 211136Z 2112/2212 24006KT 2SM BR BKN003
     FM211315 22005KT P6SM FEW003 SCT025
     FM211400 24006KT P6SM BKN035
     FM211600 26008KT P6SM VCSH BKN050
     FM220100 VRB03KT P6SM SCT250
     FM220700 00000KT 2SM BR BKN003
      AMD LTD TO CLD VIS AND WIND=

USA.gov is the U.S. government's official web portal to all federal, state and local government web resources and services.